sensor_id;sensor_type;location;lat;lon;timestamp;P1;durP1;ratioP1;P2;durP2;ratioP2
74967;SDS011;63523;51.880;12.630;2023-06-22T00:00:56;11.27;;;7.50;;
74967;SDS011;63523;51.880;12.630;2023-06-22T00:03:22;11.93;;;7.43;;
74967;SDS011;63523;51.880;12.630;2023-06-22T00:05:49;10.93;;;7.35;;
74967;SDS011;63523;51.880;12.630;2023-06-22T00:08:15;9.93;;;6.85;;
74967;SDS011;63523;51.880;12.630;2023-06-22T00:10:41;10.05;;;7.55;;
74967;SDS011;63523;51.880;12.630;2023-06-22T00:13:07;9.90;;;7.00;;
74967;SDS011;63523;51.880;12.630;2023-06-22T00:15:33;10.00;;;6.90;;
74967;SDS011;63523;51.880;12.630;2023-06-22T00:17:59;13.55;;;7.18;;
74967;SDS011;63523;51.880;12.630;2023-06-22T00:20:24;9.97;;;7.10;;
74967;SDS011;63523;51.880;12.630;2023-06-22T00:22:54;10.68;;;7.60;;
74967;SDS011;63523;51.880;12.630;2023-06-22T00:25:20;11.57;;;8.15;;
74967;SDS011;63523;51.880;12.630;2023-06-22T00:27:45;10.90;;;7.80;;
74967;SDS011;63523;51.880;12.630;2023-06-22T00:30:11;10.07;;;7.73;;
74967;SDS011;63523;51.880;12.630;2023-06-22T00:32:36;11.20;;;7.77;;
74967;SDS011;63523;51.880;12.630;2023-06-22T00:35:01;11.43;;;7.73;;
74967;SDS011;63523;51.880;12.630;2023-06-22T00:37:27;11.55;;;7.82;;
74967;SDS011;63523;51.880;12.630;2023-06-22T00:39:55;10.90;;;7.70;;
74967;SDS011;63523;51.880;12.630;2023-06-22T00:42:20;10.95;;;7.53;;
74967;SDS011;63523;51.880;12.630;2023-06-22T00:44:46;11.10;;;7.70;;
74967;SDS011;63523;51.880;12.630;2023-06-22T00:47:13;10.98;;;7.68;;
74967;SDS011;63523;51.880;12.630;2023-06-22T00:49:40;11.63;;;8.02;;
74967;SDS011;63523;51.880;12.630;2023-06-22T00:52:06;12.13;;;7.90;;
74967;SDS011;63523;51.880;12.630;2023-06-22T00:54:42;12.25;;;8.68;;
74967;SDS011;63523;51.880;12.630;2023-06-22T00:57:10;11.85;;;7.63;;
74967;SDS011;63523;51.880;12.630;2023-06-22T00:59:40;12.82;;;7.75;;
74967;SDS011;63523;51.880;12.630;2023-06-22T01:02:10;11.87;;;7.63;;
74967;SDS011;63523;51.880;12.630;2023-06-22T01:04:37;13.43;;;8.32;;
74967;SDS011;63523;51.880;12.630;2023-06-22T01:07:13;11.05;;;7.45;;
74967;SDS011;63523;51.880;12.630;2023-06-22T01:12:28;12.02;;;7.45;;
74967;SDS011;63523;51.880;12.630;2023-06-22T01:14:58;10.57;;;7.20;;
74967;SDS011;63523;51.880;12.630;2023-06-22T01:17:36;10.18;;;6.90;;
74967;SDS011;63523;51.880;12.630;2023-06-22T01:20:06;10.43;;;7.13;;
74967;SDS011;63523;51.880;12.630;2023-06-22T01:22:36;11.48;;;6.90;;
74967;SDS011;63523;51.880;12.630;2023-06-22T01:25:20;10.18;;;7.03;;
74967;SDS011;63523;51.880;12.630;2023-06-22T01:30:30;10.32;;;7.03;;
74967;SDS011;63523;51.880;12.630;2023-06-22T01:32:58;9.93;;;6.50;;
74967;SDS011;63523;51.880;12.630;2023-06-22T01:35:25;10.73;;;6.90;;
74967;SDS011;63523;51.880;12.630;2023-06-22T01:37:51;9.87;;;6.30;;
74967;SDS011;63523;51.880;12.630;2023-06-22T01:40:17;10.30;;;6.63;;
74967;SDS011;63523;51.880;12.630;2023-06-22T01:42:44;10.32;;;6.60;;
74967;SDS011;63523;51.880;12.630;2023-06-22T01:45:10;10.40;;;6.97;;
74967;SDS011;63523;51.880;12.630;2023-06-22T01:47:36;9.52;;;6.88;;
74967;SDS011;63523;51.880;12.630;2023-06-22T01:50:02;10.77;;;6.53;;
74967;SDS011;63523;51.880;12.630;2023-06-22T01:52:28;10.43;;;7.30;;
74967;SDS011;63523;51.880;12.630;2023-06-22T01:54:53;10.90;;;7.00;;
74967;SDS011;63523;51.880;12.630;2023-06-22T01:57:19;10.53;;;7.20;;
74967;SDS011;63523;51.880;12.630;2023-06-22T02:00:01;11.07;;;7.07;;
74967;SDS011;63523;51.880;12.630;2023-06-22T02:02:33;11.25;;;7.18;;
74967;SDS011;63523;51.880;12.630;2023-06-22T02:05:06;9.83;;;7.00;;
74967;SDS011;63523;51.880;12.630;2023-06-22T02:07:37;10.95;;;7.72;;
74967;SDS011;63523;51.880;12.630;2023-06-22T02:10:06;11.05;;;6.95;;
74967;SDS011;63523;51.880;12.630;2023-06-22T02:12:32;11.23;;;7.50;;
74967;SDS011;63523;51.880;12.630;2023-06-22T02:15:00;11.25;;;7.47;;
74967;SDS011;63523;51.880;12.630;2023-06-22T02:17:26;10.03;;;6.87;;
74967;SDS011;63523;51.880;12.630;2023-06-22T02:19:51;10.50;;;6.78;;
74967;SDS011;63523;51.880;12.630;2023-06-22T02:22:17;10.20;;;6.97;;
74967;SDS011;63523;51.880;12.630;2023-06-22T02:24:42;11.80;;;7.87;;
74967;SDS011;63523;51.880;12.630;2023-06-22T02:27:08;11.83;;;7.90;;
74967;SDS011;63523;51.880;12.630;2023-06-22T02:29:33;11.70;;;7.73;;
74967;SDS011;63523;51.880;12.630;2023-06-22T02:31:58;10.97;;;7.90;;
74967;SDS011;63523;51.880;12.630;2023-06-22T02:34:24;11.90;;;7.25;;
74967;SDS011;63523;51.880;12.630;2023-06-22T02:36:49;12.57;;;7.97;;
74967;SDS011;63523;51.880;12.630;2023-06-22T02:39:21;11.63;;;7.72;;
74967;SDS011;63523;51.880;12.630;2023-06-22T02:41:48;11.57;;;7.40;;
74967;SDS011;63523;51.880;12.630;2023-06-22T02:44:13;12.10;;;8.40;;
74967;SDS011;63523;51.880;12.630;2023-06-22T02:46:39;12.50;;;8.10;;
74967;SDS011;63523;51.880;12.630;2023-06-22T02:49:04;11.77;;;8.10;;
74967;SDS011;63523;51.880;12.630;2023-06-22T02:51:30;11.47;;;8.00;;
74967;SDS011;63523;51.880;12.630;2023-06-22T02:53:58;12.52;;;8.30;;
74967;SDS011;63523;51.880;12.630;2023-06-22T02:56:24;13.97;;;8.33;;
74967;SDS011;63523;51.880;12.630;2023-06-22T02:58:49;14.68;;;9.38;;
74967;SDS011;63523;51.880;12.630;2023-06-22T03:01:15;13.13;;;9.07;;
74967;SDS011;63523;51.880;12.630;2023-06-22T03:03:40;13.27;;;9.20;;
74967;SDS011;63523;51.880;12.630;2023-06-22T03:06:05;13.50;;;9.00;;
74967;SDS011;63523;51.880;12.630;2023-06-22T03:08:31;14.90;;;9.33;;
74967;SDS011;63523;51.880;12.630;2023-06-22T03:10:56;11.93;;;8.60;;
74967;SDS011;63523;51.880;12.630;2023-06-22T03:13:21;14.53;;;9.47;;
74967;SDS011;63523;51.880;12.630;2023-06-22T03:15:47;13.57;;;9.00;;
74967;SDS011;63523;51.880;12.630;2023-06-22T03:18:12;14.23;;;8.53;;
74967;SDS011;63523;51.880;12.630;2023-06-22T03:20:37;14.43;;;8.70;;
74967;SDS011;63523;51.880;12.630;2023-06-22T03:23:03;15.20;;;9.30;;
74967;SDS011;63523;51.880;12.630;2023-06-22T03:25:28;14.87;;;9.20;;
74967;SDS011;63523;51.880;12.630;2023-06-22T03:27:53;13.20;;;9.10;;
74967;SDS011;63523;51.880;12.630;2023-06-22T03:30:18;15.05;;;9.65;;
74967;SDS011;63523;51.880;12.630;2023-06-22T03:32:44;13.93;;;9.63;;
74967;SDS011;63523;51.880;12.630;2023-06-22T03:35:09;12.83;;;8.80;;
74967;SDS011;63523;51.880;12.630;2023-06-22T03:37:35;15.67;;;9.93;;
74967;SDS011;63523;51.880;12.630;2023-06-22T03:40:00;15.90;;;9.87;;
74967;SDS011;63523;51.880;12.630;2023-06-22T03:42:26;15.17;;;9.73;;
74967;SDS011;63523;51.880;12.630;2023-06-22T03:44:51;15.67;;;9.70;;
74967;SDS011;63523;51.880;12.630;2023-06-22T03:47:17;14.90;;;9.50;;
74967;SDS011;63523;51.880;12.630;2023-06-22T03:49:42;16.25;;;10.00;;
74967;SDS011;63523;51.880;12.630;2023-06-22T03:52:07;16.57;;;10.47;;
74967;SDS011;63523;51.880;12.630;2023-06-22T03:54:33;12.80;;;9.27;;
74967;SDS011;63523;51.880;12.630;2023-06-22T03:56:58;15.10;;;9.60;;
74967;SDS011;63523;51.880;12.630;2023-06-22T03:59:23;13.67;;;9.00;;
74967;SDS011;63523;51.880;12.630;2023-06-22T04:01:49;13.05;;;9.30;;
74967;SDS011;63523;51.880;12.630;2023-06-22T04:04:15;14.50;;;9.83;;
74967;SDS011;63523;51.880;12.630;2023-06-22T04:06:41;15.18;;;10.00;;
74967;SDS011;63523;51.880;12.630;2023-06-22T04:09:06;15.20;;;10.73;;
74967;SDS011;63523;51.880;12.630;2023-06-22T04:11:32;13.80;;;9.67;;
74967;SDS011;63523;51.880;12.630;2023-06-22T04:13:57;14.20;;;10.02;;
74967;SDS011;63523;51.880;12.630;2023-06-22T04:16:22;14.43;;;10.20;;
74967;SDS011;63523;51.880;12.630;2023-06-22T04:18:48;12.60;;;9.17;;
74967;SDS011;63523;51.880;12.630;2023-06-22T04:21:13;16.17;;;10.13;;
74967;SDS011;63523;51.880;12.630;2023-06-22T04:23:38;16.50;;;10.23;;
74967;SDS011;63523;51.880;12.630;2023-06-22T04:26:04;17.63;;;10.23;;
74967;SDS011;63523;51.880;12.630;2023-06-22T04:28:29;17.65;;;11.30;;
74967;SDS011;63523;51.880;12.630;2023-06-22T04:31:00;18.85;;;11.80;;
74967;SDS011;63523;51.880;12.630;2023-06-22T04:33:29;18.33;;;11.20;;
74967;SDS011;63523;51.880;12.630;2023-06-22T04:35:55;15.27;;;10.53;;
74967;SDS011;63523;51.880;12.630;2023-06-22T04:38:23;15.52;;;10.52;;
74967;SDS011;63523;51.880;12.630;2023-06-22T04:40:50;14.93;;;9.98;;
74967;SDS011;63523;51.880;12.630;2023-06-22T04:43:16;15.13;;;11.10;;
74967;SDS011;63523;51.880;12.630;2023-06-22T04:45:41;14.17;;;10.10;;
74967;SDS011;63523;51.880;12.630;2023-06-22T04:48:06;15.60;;;10.73;;
74967;SDS011;63523;51.880;12.630;2023-06-22T04:50:33;16.17;;;10.07;;
74967;SDS011;63523;51.880;12.630;2023-06-22T04:52:58;14.97;;;10.00;;
74967;SDS011;63523;51.880;12.630;2023-06-22T04:55:24;15.43;;;11.37;;
74967;SDS011;63523;51.880;12.630;2023-06-22T04:57:50;16.70;;;10.97;;
74967;SDS011;63523;51.880;12.630;2023-06-22T05:00:20;15.68;;;10.55;;
74967;SDS011;63523;51.880;12.630;2023-06-22T05:02:47;16.17;;;11.40;;
74967;SDS011;63523;51.880;12.630;2023-06-22T05:05:13;13.43;;;9.87;;
74967;SDS011;63523;51.880;12.630;2023-06-22T05:07:42;14.02;;;10.82;;
74967;SDS011;63523;51.880;12.630;2023-06-22T05:10:09;14.82;;;10.20;;
74967;SDS011;63523;51.880;12.630;2023-06-22T05:12:36;15.68;;;11.13;;
74967;SDS011;63523;51.880;12.630;2023-06-22T05:15:02;16.07;;;10.93;;
74967;SDS011;63523;51.880;12.630;2023-06-22T05:17:27;14.93;;;10.63;;
74967;SDS011;63523;51.880;12.630;2023-06-22T05:19:53;13.88;;;10.52;;
74967;SDS011;63523;51.880;12.630;2023-06-22T05:22:19;14.40;;;10.70;;
74967;SDS011;63523;51.880;12.630;2023-06-22T05:24:45;15.95;;;10.95;;
74967;SDS011;63523;51.880;12.630;2023-06-22T05:27:10;14.60;;;10.97;;
74967;SDS011;63523;51.880;12.630;2023-06-22T05:29:38;15.43;;;11.17;;
74967;SDS011;63523;51.880;12.630;2023-06-22T05:32:04;15.77;;;11.20;;
74967;SDS011;63523;51.880;12.630;2023-06-22T05:34:29;16.60;;;11.90;;
74967;SDS011;63523;51.880;12.630;2023-06-22T05:36:55;14.93;;;10.30;;
74967;SDS011;63523;51.880;12.630;2023-06-22T05:39:20;15.73;;;11.65;;
74967;SDS011;63523;51.880;12.630;2023-06-22T05:41:46;15.50;;;11.10;;
74967;SDS011;63523;51.880;12.630;2023-06-22T05:44:11;16.13;;;11.57;;
74967;SDS011;63523;51.880;12.630;2023-06-22T05:46:39;17.70;;;11.70;;
74967;SDS011;63523;51.880;12.630;2023-06-22T05:49:09;19.85;;;11.75;;
74967;SDS011;63523;51.880;12.630;2023-06-22T05:51:34;16.52;;;11.90;;
74967;SDS011;63523;51.880;12.630;2023-06-22T05:54:00;16.90;;;12.00;;
74967;SDS011;63523;51.880;12.630;2023-06-22T05:56:25;19.20;;;12.00;;
74967;SDS011;63523;51.880;12.630;2023-06-22T05:58:50;15.00;;;10.97;;
74967;SDS011;63523;51.880;12.630;2023-06-22T06:01:16;15.50;;;11.43;;
74967;SDS011;63523;51.880;12.630;2023-06-22T06:03:41;19.30;;;12.60;;
74967;SDS011;63523;51.880;12.630;2023-06-22T06:06:07;15.53;;;11.83;;
74967;SDS011;63523;51.880;12.630;2023-06-22T06:08:32;15.70;;;12.07;;
74967;SDS011;63523;51.880;12.630;2023-06-22T06:10:58;16.67;;;12.10;;
74967;SDS011;63523;51.880;12.630;2023-06-22T06:13:23;15.33;;;11.73;;
74967;SDS011;63523;51.880;12.630;2023-06-22T06:15:49;15.10;;;11.60;;
74967;SDS011;63523;51.880;12.630;2023-06-22T06:18:16;16.08;;;11.77;;
74967;SDS011;63523;51.880;12.630;2023-06-22T06:20:42;16.30;;;10.98;;
74967;SDS011;63523;51.880;12.630;2023-06-22T06:23:07;16.10;;;11.53;;
74967;SDS011;63523;51.880;12.630;2023-06-22T06:25:32;16.77;;;11.77;;
74967;SDS011;63523;51.880;12.630;2023-06-22T06:27:58;16.83;;;11.83;;
74967;SDS011;63523;51.880;12.630;2023-06-22T06:30:23;15.43;;;11.00;;
74967;SDS011;63523;51.880;12.630;2023-06-22T06:32:49;21.13;;;12.73;;
74967;SDS011;63523;51.880;12.630;2023-06-22T06:35:15;20.00;;;13.83;;
74967;SDS011;63523;51.880;12.630;2023-06-22T06:37:43;23.33;;;13.75;;
74967;SDS011;63523;51.880;12.630;2023-06-22T06:40:12;16.20;;;11.98;;
74967;SDS011;63523;51.880;12.630;2023-06-22T06:42:42;18.85;;;12.73;;
74967;SDS011;63523;51.880;12.630;2023-06-22T06:45:15;16.55;;;11.55;;
74967;SDS011;63523;51.880;12.630;2023-06-22T06:47:41;16.77;;;11.90;;
74967;SDS011;63523;51.880;12.630;2023-06-22T06:50:07;17.40;;;11.55;;
74967;SDS011;63523;51.880;12.630;2023-06-22T06:52:33;15.02;;;11.63;;
74967;SDS011;63523;51.880;12.630;2023-06-22T06:54:59;15.67;;;11.80;;
74967;SDS011;63523;51.880;12.630;2023-06-22T06:57:24;17.15;;;12.52;;
74967;SDS011;63523;51.880;12.630;2023-06-22T06:59:53;18.33;;;10.93;;
74967;SDS011;63523;51.880;12.630;2023-06-22T07:02:19;15.55;;;10.85;;
74967;SDS011;63523;51.880;12.630;2023-06-22T07:04:45;16.60;;;11.68;;
74967;SDS011;63523;51.880;12.630;2023-06-22T07:07:11;16.75;;;10.40;;
74967;SDS011;63523;51.880;12.630;2023-06-22T07:09:36;14.60;;;11.40;;
74967;SDS011;63523;51.880;12.630;2023-06-22T07:12:02;14.87;;;11.07;;
74967;SDS011;63523;51.880;12.630;2023-06-22T07:14:27;15.63;;;11.37;;
74967;SDS011;63523;51.880;12.630;2023-06-22T07:16:52;15.80;;;10.63;;
74967;SDS011;63523;51.880;12.630;2023-06-22T07:19:24;14.43;;;11.00;;
74967;SDS011;63523;51.880;12.630;2023-06-22T07:21:50;13.25;;;10.05;;
74967;SDS011;63523;51.880;12.630;2023-06-22T07:24:16;14.60;;;10.70;;
74967;SDS011;63523;51.880;12.630;2023-06-22T07:26:41;14.90;;;9.93;;
74967;SDS011;63523;51.880;12.630;2023-06-22T07:29:10;14.13;;;10.80;;
74967;SDS011;63523;51.880;12.630;2023-06-22T07:31:35;12.50;;;9.70;;
74967;SDS011;63523;51.880;12.630;2023-06-22T07:34:01;14.93;;;10.80;;
74967;SDS011;63523;51.880;12.630;2023-06-22T07:36:26;15.43;;;11.27;;
74967;SDS011;63523;51.880;12.630;2023-06-22T07:38:51;15.47;;;10.80;;
74967;SDS011;63523;51.880;12.630;2023-06-22T07:41:17;14.30;;;9.60;;
74967;SDS011;63523;51.880;12.630;2023-06-22T07:43:44;12.53;;;9.80;;
74967;SDS011;63523;51.880;12.630;2023-06-22T07:46:09;13.30;;;9.40;;
74967;SDS011;63523;51.880;12.630;2023-06-22T07:48:36;12.67;;;9.83;;
74967;SDS011;63523;51.880;12.630;2023-06-22T07:51:02;12.67;;;10.13;;
74967;SDS011;63523;51.880;12.630;2023-06-22T07:53:27;12.20;;;9.25;;
74967;SDS011;63523;51.880;12.630;2023-06-22T07:55:53;13.10;;;9.13;;
74967;SDS011;63523;51.880;12.630;2023-06-22T07:58:18;13.70;;;9.20;;
74967;SDS011;63523;51.880;12.630;2023-06-22T08:00:45;12.60;;;9.38;;
74967;SDS011;63523;51.880;12.630;2023-06-22T08:03:10;13.40;;;9.80;;
74967;SDS011;63523;51.880;12.630;2023-06-22T08:05:36;11.50;;;8.80;;
74967;SDS011;63523;51.880;12.630;2023-06-22T08:08:01;13.30;;;10.38;;
74967;SDS011;63523;51.880;12.630;2023-06-22T08:10:27;13.37;;;9.30;;
74967;SDS011;63523;51.880;12.630;2023-06-22T08:12:52;15.17;;;9.37;;
74967;SDS011;63523;51.880;12.630;2023-06-22T08:15:17;13.00;;;9.50;;
74967;SDS011;63523;51.880;12.630;2023-06-22T08:17:43;12.63;;;10.03;;
74967;SDS011;63523;51.880;12.630;2023-06-22T08:20:09;11.95;;;9.57;;
74967;SDS011;63523;51.880;12.630;2023-06-22T08:22:36;12.85;;;10.02;;
74967;SDS011;63523;51.880;12.630;2023-06-22T08:25:02;12.20;;;9.83;;
74967;SDS011;63523;51.880;12.630;2023-06-22T08:27:31;12.33;;;9.80;;
74967;SDS011;63523;51.880;12.630;2023-06-22T08:29:57;12.85;;;9.18;;
74967;SDS011;63523;51.880;12.630;2023-06-22T08:32:24;11.25;;;8.95;;
74967;SDS011;63523;51.880;12.630;2023-06-22T08:34:51;12.82;;;9.20;;
74967;SDS011;63523;51.880;12.630;2023-06-22T08:37:17;13.40;;;9.20;;
74967;SDS011;63523;51.880;12.630;2023-06-22T08:39:42;11.70;;;9.03;;
74967;SDS011;63523;51.880;12.630;2023-06-22T08:42:08;13.30;;;9.75;;
74967;SDS011;63523;51.880;12.630;2023-06-22T08:44:33;11.90;;;9.70;;
74967;SDS011;63523;51.880;12.630;2023-06-22T08:46:58;12.40;;;9.07;;
74967;SDS011;63523;51.880;12.630;2023-06-22T08:49:24;15.30;;;9.53;;
74967;SDS011;63523;51.880;12.630;2023-06-22T08:51:49;11.73;;;9.30;;
74967;SDS011;63523;51.880;12.630;2023-06-22T08:54:14;13.30;;;9.80;;
74967;SDS011;63523;51.880;12.630;2023-06-22T08:56:39;12.40;;;9.50;;
74967;SDS011;63523;51.880;12.630;2023-06-22T08:59:05;12.67;;;9.13;;
74967;SDS011;63523;51.880;12.630;2023-06-22T09:01:32;13.55;;;9.75;;
74967;SDS011;63523;51.880;12.630;2023-06-22T09:03:58;15.10;;;10.13;;
74967;SDS011;63523;51.880;12.630;2023-06-22T09:06:24;13.63;;;9.48;;
74967;SDS011;63523;51.880;12.630;2023-06-22T09:08:50;12.63;;;8.93;;
74967;SDS011;63523;51.880;12.630;2023-06-22T09:11:15;12.73;;;9.43;;
74967;SDS011;63523;51.880;12.630;2023-06-22T09:13:41;14.30;;;9.87;;
74967;SDS011;63523;51.880;12.630;2023-06-22T09:16:06;13.18;;;9.45;;
74967;SDS011;63523;51.880;12.630;2023-06-22T09:18:31;10.93;;;9.10;;
74967;SDS011;63523;51.880;12.630;2023-06-22T09:20:57;12.47;;;10.27;;
74967;SDS011;63523;51.880;12.630;2023-06-22T09:23:22;11.20;;;9.70;;
74967;SDS011;63523;51.880;12.630;2023-06-22T09:25:47;11.40;;;9.60;;
74967;SDS011;63523;51.880;12.630;2023-06-22T09:28:13;13.40;;;10.10;;
74967;SDS011;63523;51.880;12.630;2023-06-22T09:30:39;16.48;;;9.77;;
74967;SDS011;63523;51.880;12.630;2023-06-22T09:33:04;12.13;;;9.67;;
74967;SDS011;63523;51.880;12.630;2023-06-22T09:35:29;11.33;;;9.93;;
74967;SDS011;63523;51.880;12.630;2023-06-22T09:37:54;12.40;;;9.33;;
74967;SDS011;63523;51.880;12.630;2023-06-22T09:40:19;11.50;;;9.87;;
74967;SDS011;63523;51.880;12.630;2023-06-22T09:42:45;11.10;;;9.73;;
74967;SDS011;63523;51.880;12.630;2023-06-22T09:45:10;12.40;;;9.35;;
74967;SDS011;63523;51.880;12.630;2023-06-22T09:47:36;10.90;;;8.53;;
74967;SDS011;63523;51.880;12.630;2023-06-22T09:50:01;12.70;;;9.20;;
74967;SDS011;63523;51.880;12.630;2023-06-22T09:52:26;11.13;;;9.03;;
74967;SDS011;63523;51.880;12.630;2023-06-22T09:54:52;10.27;;;8.10;;
74967;SDS011;63523;51.880;12.630;2023-06-22T09:57:17;11.80;;;8.70;;
74967;SDS011;63523;51.880;12.630;2023-06-22T09:59:42;10.10;;;8.37;;
74967;SDS011;63523;51.880;12.630;2023-06-22T10:02:07;14.13;;;9.00;;
74967;SDS011;63523;51.880;12.630;2023-06-22T10:04:33;10.70;;;8.17;;
74967;SDS011;63523;51.880;12.630;2023-06-22T10:06:59;11.95;;;9.10;;
74967;SDS011;63523;51.880;12.630;2023-06-22T10:09:24;10.10;;;8.07;;
74967;SDS011;63523;51.880;12.630;2023-06-22T10:11:50;9.53;;;8.10;;
74967;SDS011;63523;51.880;12.630;2023-06-22T10:14:15;10.90;;;8.37;;
74967;SDS011;63523;51.880;12.630;2023-06-22T10:16:41;10.98;;;8.02;;
74967;SDS011;63523;51.880;12.630;2023-06-22T10:19:07;10.77;;;8.97;;
74967;SDS011;63523;51.880;12.630;2023-06-22T10:21:32;11.43;;;9.00;;
74967;SDS011;63523;51.880;12.630;2023-06-22T10:23:57;11.00;;;8.75;;
74967;SDS011;63523;51.880;12.630;2023-06-22T10:26:24;11.00;;;8.27;;
74967;SDS011;63523;51.880;12.630;2023-06-22T10:28:49;26.63;;;9.80;;
74967;SDS011;63523;51.880;12.630;2023-06-22T10:31:15;12.77;;;7.93;;
74967;SDS011;63523;51.880;12.630;2023-06-22T10:33:41;11.23;;;7.85;;
74967;SDS011;63523;51.880;12.630;2023-06-22T10:36:08;10.35;;;8.18;;
74967;SDS011;63523;51.880;12.630;2023-06-22T10:38:34;10.57;;;8.33;;
74967;SDS011;63523;51.880;12.630;2023-06-22T10:40:59;11.37;;;8.03;;
74967;SDS011;63523;51.880;12.630;2023-06-22T10:43:25;11.27;;;8.83;;
74967;SDS011;63523;51.880;12.630;2023-06-22T10:45:50;10.27;;;8.40;;
74967;SDS011;63523;51.880;12.630;2023-06-22T10:48:15;9.53;;;7.27;;
74967;SDS011;63523;51.880;12.630;2023-06-22T10:50:40;9.57;;;7.40;;
74967;SDS011;63523;51.880;12.630;2023-06-22T10:53:06;9.63;;;7.10;;
74967;SDS011;63523;51.880;12.630;2023-06-22T10:55:31;10.37;;;7.73;;
74967;SDS011;63523;51.880;12.630;2023-06-22T10:57:56;9.50;;;7.93;;
74967;SDS011;63523;51.880;12.630;2023-06-22T11:00:21;10.60;;;7.30;;
74967;SDS011;63523;51.880;12.630;2023-06-22T11:02:47;9.60;;;7.30;;
74967;SDS011;63523;51.880;12.630;2023-06-22T11:05:12;11.03;;;7.50;;
74967;SDS011;63523;51.880;12.630;2023-06-22T11:07:38;9.40;;;7.37;;
74967;SDS011;63523;51.880;12.630;2023-06-22T11:10:06;10.30;;;7.93;;
74967;SDS011;63523;51.880;12.630;2023-06-22T11:12:32;8.85;;;7.57;;
74967;SDS011;63523;51.880;12.630;2023-06-22T11:14:57;9.70;;;7.57;;
74967;SDS011;63523;51.880;12.630;2023-06-22T11:17:23;9.53;;;8.03;;
74967;SDS011;63523;51.880;12.630;2023-06-22T11:19:48;8.90;;;7.53;;
74967;SDS011;63523;51.880;12.630;2023-06-22T11:22:13;11.13;;;8.20;;
74967;SDS011;63523;51.880;12.630;2023-06-22T11:24:39;9.90;;;8.50;;
74967;SDS011;63523;51.880;12.630;2023-06-22T11:27:04;9.53;;;8.37;;
74967;SDS011;63523;51.880;12.630;2023-06-22T11:29:30;10.70;;;8.53;;
74967;SDS011;63523;51.880;12.630;2023-06-22T11:31:55;10.57;;;8.10;;
74967;SDS011;63523;51.880;12.630;2023-06-22T11:34:21;10.30;;;8.77;;
74967;SDS011;63523;51.880;12.630;2023-06-22T11:36:46;10.23;;;8.73;;
74967;SDS011;63523;51.880;12.630;2023-06-22T11:39:13;9.88;;;8.75;;
74967;SDS011;63523;51.880;12.630;2023-06-22T11:41:39;9.57;;;8.35;;
74967;SDS011;63523;51.880;12.630;2023-06-22T11:44:05;9.43;;;8.13;;
74967;SDS011;63523;51.880;12.630;2023-06-22T11:46:30;12.90;;;8.63;;
74967;SDS011;63523;51.880;12.630;2023-06-22T11:48:57;11.63;;;9.15;;
74967;SDS011;63523;51.880;12.630;2023-06-22T11:51:22;9.90;;;8.90;;
74967;SDS011;63523;51.880;12.630;2023-06-22T11:53:47;10.77;;;8.37;;
74967;SDS011;63523;51.880;12.630;2023-06-22T11:56:13;10.10;;;8.70;;
74967;SDS011;63523;51.880;12.630;2023-06-22T11:58:38;12.23;;;8.70;;
74967;SDS011;63523;51.880;12.630;2023-06-22T12:01:03;9.87;;;7.97;;
74967;SDS011;63523;51.880;12.630;2023-06-22T12:03:29;12.32;;;8.68;;
74967;SDS011;63523;51.880;12.630;2023-06-22T12:05:55;10.27;;;8.53;;
74967;SDS011;63523;51.880;12.630;2023-06-22T12:08:20;12.47;;;8.93;;
74967;SDS011;63523;51.880;12.630;2023-06-22T12:10:46;10.93;;;8.37;;
74967;SDS011;63523;51.880;12.630;2023-06-22T12:13:11;10.77;;;8.90;;
74967;SDS011;63523;51.880;12.630;2023-06-22T12:15:36;11.17;;;8.60;;
74967;SDS011;63523;51.880;12.630;2023-06-22T12:18:02;9.80;;;8.43;;
74967;SDS011;63523;51.880;12.630;2023-06-22T12:20:27;10.45;;;8.90;;
74967;SDS011;63523;51.880;12.630;2023-06-22T12:22:53;9.90;;;8.50;;
74967;SDS011;63523;51.880;12.630;2023-06-22T12:25:20;9.98;;;8.60;;
74967;SDS011;63523;51.880;12.630;2023-06-22T12:27:45;11.07;;;8.47;;
74967;SDS011;63523;51.880;12.630;2023-06-22T12:30:11;12.07;;;9.30;;
74967;SDS011;63523;51.880;12.630;2023-06-22T12:32:36;11.53;;;8.70;;
74967;SDS011;63523;51.880;12.630;2023-06-22T12:35:01;12.37;;;8.23;;
74967;SDS011;63523;51.880;12.630;2023-06-22T12:37:27;10.13;;;8.43;;
74967;SDS011;63523;51.880;12.630;2023-06-22T12:39:53;10.57;;;9.40;;
74967;SDS011;63523;51.880;12.630;2023-06-22T12:42:19;10.53;;;8.30;;
74967;SDS011;63523;51.880;12.630;2023-06-22T12:44:45;10.82;;;8.40;;
74967;SDS011;63523;51.880;12.630;2023-06-22T12:47:11;11.73;;;8.97;;
74967;SDS011;63523;51.880;12.630;2023-06-22T12:49:36;11.63;;;8.47;;
74967;SDS011;63523;51.880;12.630;2023-06-22T12:52:02;10.87;;;8.50;;
74967;SDS011;63523;51.880;12.630;2023-06-22T12:54:27;10.93;;;8.23;;
74967;SDS011;63523;51.880;12.630;2023-06-22T12:56:55;11.07;;;8.88;;
74967;SDS011;63523;51.880;12.630;2023-06-22T12:59:21;10.03;;;8.17;;
74967;SDS011;63523;51.880;12.630;2023-06-22T13:01:46;11.05;;;8.05;;
74967;SDS011;63523;51.880;12.630;2023-06-22T13:04:12;9.70;;;7.70;;
74967;SDS011;63523;51.880;12.630;2023-06-22T13:06:40;9.60;;;8.07;;
74967;SDS011;63523;51.880;12.630;2023-06-22T13:09:09;10.30;;;8.30;;
74967;SDS011;63523;51.880;12.630;2023-06-22T13:11:34;10.73;;;8.65;;
74967;SDS011;63523;51.880;12.630;2023-06-22T13:14:00;11.80;;;8.33;;
74967;SDS011;63523;51.880;12.630;2023-06-22T13:16:25;10.83;;;8.43;;
74967;SDS011;63523;51.880;12.630;2023-06-22T13:18:50;11.80;;;7.83;;
74967;SDS011;63523;51.880;12.630;2023-06-22T13:21:16;8.83;;;7.70;;
74967;SDS011;63523;51.880;12.630;2023-06-22T13:23:41;9.77;;;8.30;;
74967;SDS011;63523;51.880;12.630;2023-06-22T13:26:07;9.80;;;7.63;;
74967;SDS011;63523;51.880;12.630;2023-06-22T13:28:32;11.10;;;8.10;;
74967;SDS011;63523;51.880;12.630;2023-06-22T13:30:57;9.50;;;8.07;;
74967;SDS011;63523;51.880;12.630;2023-06-22T13:33:23;10.20;;;7.87;;
74967;SDS011;63523;51.880;12.630;2023-06-22T13:35:48;9.90;;;7.50;;
74967;SDS011;63523;51.880;12.630;2023-06-22T13:38:13;9.33;;;7.80;;
74967;SDS011;63523;51.880;12.630;2023-06-22T13:40:38;12.77;;;7.97;;
74967;SDS011;63523;51.880;12.630;2023-06-22T13:43:04;9.83;;;8.10;;
74967;SDS011;63523;51.880;12.630;2023-06-22T13:45:30;10.43;;;7.90;;
74967;SDS011;63523;51.880;12.630;2023-06-22T13:47:55;9.98;;;7.90;;
74967;SDS011;63523;51.880;12.630;2023-06-22T13:50:21;9.30;;;7.60;;
74967;SDS011;63523;51.880;12.630;2023-06-22T13:52:46;10.03;;;7.10;;
74967;SDS011;63523;51.880;12.630;2023-06-22T13:55:11;8.90;;;8.00;;
74967;SDS011;63523;51.880;12.630;2023-06-22T13:57:39;9.48;;;7.60;;
74967;SDS011;63523;51.880;12.630;2023-06-22T14:00:04;9.80;;;7.37;;
74967;SDS011;63523;51.880;12.630;2023-06-22T14:02:30;9.43;;;7.78;;
74967;SDS011;63523;51.880;12.630;2023-06-22T14:04:56;9.27;;;7.60;;
74967;SDS011;63523;51.880;12.630;2023-06-22T14:07:22;9.43;;;7.75;;
74967;SDS011;63523;51.880;12.630;2023-06-22T14:09:49;9.53;;;7.07;;
74967;SDS011;63523;51.880;12.630;2023-06-22T14:12:14;9.18;;;7.05;;
74967;SDS011;63523;51.880;12.630;2023-06-22T14:14:40;11.00;;;7.10;;
74967;SDS011;63523;51.880;12.630;2023-06-22T14:17:06;11.17;;;7.43;;
74967;SDS011;63523;51.880;12.630;2023-06-22T14:19:31;9.90;;;7.10;;